sensor_id;sensor_type;location;lat;lon;timestamp;P1;durP1;ratioP1;P2;durP2;ratioP2
22922;SDS011;11627;51.322;22.816;2024-02-04T00:00:05;11.10;;;4.40;;
22922;SDS011;11627;51.322;22.816;2024-02-04T00:02:31;6.28;;;3.20;;
22922;SDS011;11627;51.322;22.816;2024-02-04T00:04:57;9.00;;;4.05;;
22922;SDS011;11627;51.322;22.816;2024-02-04T00:07:24;6.10;;;3.22;;
22922;SDS011;11627;51.322;22.816;2024-02-04T00:09:51;10.88;;;5.00;;
22922;SDS011;11627;51.322;22.816;2024-02-04T00:12:18;8.02;;;4.10;;
22922;SDS011;11627;51.322;22.816;2024-02-04T00:14:44;7.38;;;4.45;;
22922;SDS011;11627;51.322;22.816;2024-02-04T00:17:11;8.02;;;4.00;;
22922;SDS011;11627;51.322;22.816;2024-02-04T00:19:41;5.15;;;3.17;;
22922;SDS011;11627;51.322;22.816;2024-02-04T00:22:08;6.18;;;3.55;;
22922;SDS011;11627;51.322;22.816;2024-02-04T00:24:34;7.50;;;3.97;;
22922;SDS011;11627;51.322;22.816;2024-02-04T00:27:00;9.65;;;3.45;;
22922;SDS011;11627;51.322;22.816;2024-02-04T00:29:27;5.47;;;2.22;;
22922;SDS011;11627;51.322;22.816;2024-02-04T00:31:53;7.40;;;3.92;;
22922;SDS011;11627;51.322;22.816;2024-02-04T00:34:19;5.57;;;3.78;;
22922;SDS011;11627;51.322;22.816;2024-02-04T00:36:46;8.75;;;4.68;;
22922;SDS011;11627;51.322;22.816;2024-02-04T00:39:13;9.02;;;3.67;;
22922;SDS011;11627;51.322;22.816;2024-02-04T00:41:40;2.78;;;2.10;;
22922;SDS011;11627;51.322;22.816;2024-02-04T00:44:06;5.55;;;3.38;;
22922;SDS011;11627;51.322;22.816;2024-02-04T00:46:33;11.20;;;3.28;;
22922;SDS011;11627;51.322;22.816;2024-02-04T00:49:00;6.75;;;2.55;;
22922;SDS011;11627;51.322;22.816;2024-02-04T00:51:27;5.20;;;2.58;;
22922;SDS011;11627;51.322;22.816;2024-02-04T00:53:54;8.80;;;3.40;;
22922;SDS011;11627;51.322;22.816;2024-02-04T00:56:21;6.15;;;2.55;;
22922;SDS011;11627;51.322;22.816;2024-02-04T00:58:48;2.28;;;1.67;;
22922;SDS011;11627;51.322;22.816;2024-02-04T01:01:17;6.18;;;2.15;;
22922;SDS011;11627;51.322;22.816;2024-02-04T01:03:45;4.88;;;1.80;;
22922;SDS011;11627;51.322;22.816;2024-02-04T01:06:11;4.18;;;1.70;;
22922;SDS011;11627;51.322;22.816;2024-02-04T01:08:38;4.90;;;1.65;;
22922;SDS011;11627;51.322;22.816;2024-02-04T01:11:05;3.22;;;1.63;;
22922;SDS011;11627;51.322;22.816;2024-02-04T01:13:33;1.88;;;1.05;;
22922;SDS011;11627;51.322;22.816;2024-02-04T01:16:00;4.10;;;1.85;;
22922;SDS011;11627;51.322;22.816;2024-02-04T01:18:26;6.25;;;1.17;;
22922;SDS011;11627;51.322;22.816;2024-02-04T01:20:52;4.30;;;1.70;;
22922;SDS011;11627;51.322;22.816;2024-02-04T01:23:19;4.82;;;1.85;;
22922;SDS011;11627;51.322;22.816;2024-02-04T01:25:46;5.85;;;1.30;;
22922;SDS011;11627;51.322;22.816;2024-02-04T01:28:13;4.43;;;1.95;;
22922;SDS011;11627;51.322;22.816;2024-02-04T01:30:41;5.00;;;1.50;;
22922;SDS011;11627;51.322;22.816;2024-02-04T01:33:08;6.65;;;1.00;;
22922;SDS011;11627;51.322;22.816;2024-02-04T01:35:33;3.22;;;1.20;;
22922;SDS011;11627;51.322;22.816;2024-02-04T01:38:01;5.00;;;1.10;;
22922;SDS011;11627;51.322;22.816;2024-02-04T01:40:26;3.60;;;1.08;;
22922;SDS011;11627;51.322;22.816;2024-02-04T01:42:53;4.65;;;1.10;;
22922;SDS011;11627;51.322;22.816;2024-02-04T01:45:19;2.70;;;1.08;;
22922;SDS011;11627;51.322;22.816;2024-02-04T01:47:46;3.55;;;1.02;;
22922;SDS011;11627;51.322;22.816;2024-02-04T01:50:14;3.80;;;1.15;;
22922;SDS011;11627;51.322;22.816;2024-02-04T01:52:42;1.63;;;0.70;;
22922;SDS011;11627;51.322;22.816;2024-02-04T01:55:10;4.82;;;1.00;;
22922;SDS011;11627;51.322;22.816;2024-02-04T01:57:39;1.73;;;0.80;;
22922;SDS011;11627;51.322;22.816;2024-02-04T02:00:05;1.92;;;1.00;;
22922;SDS011;11627;51.322;22.816;2024-02-04T02:02:34;3.75;;;1.50;;
22922;SDS011;11627;51.322;22.816;2024-02-04T02:05:06;4.60;;;1.20;;
22922;SDS011;11627;51.322;22.816;2024-02-04T02:07:34;4.47;;;0.95;;
22922;SDS011;11627;51.322;22.816;2024-02-04T02:10:00;3.15;;;1.08;;
22922;SDS011;11627;51.322;22.816;2024-02-04T02:12:26;3.47;;;1.13;;
22922;SDS011;11627;51.322;22.816;2024-02-04T02:15:58;4.47;;;1.20;;
22922;SDS011;11627;51.322;22.816;2024-02-04T02:17:56;7.35;;;1.55;;
22922;SDS011;11627;51.322;22.816;2024-02-04T02:26:53;9.50;;;2.15;;
22922;SDS011;11627;51.322;22.816;2024-02-04T02:29:19;6.78;;;1.77;;
22922;SDS011;11627;51.322;22.816;2024-02-04T02:31:45;9.60;;;2.92;;
22922;SDS011;11627;51.322;22.816;2024-02-04T02:34:13;6.55;;;2.33;;
22922;SDS011;11627;51.322;22.816;2024-02-04T02:36:50;6.95;;;2.35;;
22922;SDS011;11627;51.322;22.816;2024-02-04T02:39:25;9.10;;;3.25;;
22922;SDS011;11627;51.322;22.816;2024-02-04T02:42:27;4.47;;;2.00;;
22922;SDS011;11627;51.322;22.816;2024-02-04T02:44:54;5.07;;;2.42;;
22922;SDS011;11627;51.322;22.816;2024-02-04T02:47:23;3.90;;;1.48;;
22922;SDS011;11627;51.322;22.816;2024-02-04T02:49:53;3.47;;;1.48;;
22922;SDS011;11627;51.322;22.816;2024-02-04T02:52:21;2.70;;;1.42;;
22922;SDS011;11627;51.322;22.816;2024-02-04T02:54:51;8.50;;;2.10;;
22922;SDS011;11627;51.322;22.816;2024-02-04T02:57:18;8.70;;;1.95;;
22922;SDS011;11627;51.322;22.816;2024-02-04T02:59:46;5.53;;;1.80;;
22922;SDS011;11627;51.322;22.816;2024-02-04T03:02:13;1.83;;;0.93;;
22922;SDS011;11627;51.322;22.816;2024-02-04T03:04:43;2.40;;;1.25;;
22922;SDS011;11627;51.322;22.816;2024-02-04T03:07:09;6.20;;;1.48;;
22922;SDS011;11627;51.322;22.816;2024-02-04T03:09:38;10.68;;;2.13;;
22922;SDS011;11627;51.322;22.816;2024-02-04T03:12:05;8.43;;;2.45;;
22922;SDS011;11627;51.322;22.816;2024-02-04T03:14:33;7.30;;;2.67;;
22922;SDS011;11627;51.322;22.816;2024-02-04T03:16:59;7.38;;;2.88;;
22922;SDS011;11627;51.322;22.816;2024-02-04T03:19:28;7.53;;;3.15;;
22922;SDS011;11627;51.322;22.816;2024-02-04T03:21:57;5.32;;;2.33;;
22922;SDS011;11627;51.322;22.816;2024-02-04T03:24:26;10.75;;;4.20;;
22922;SDS011;11627;51.322;22.816;2024-02-04T03:26:54;10.85;;;3.88;;
22922;SDS011;11627;51.322;22.816;2024-02-04T03:29:21;10.55;;;3.60;;
22922;SDS011;11627;51.322;22.816;2024-02-04T03:31:48;10.40;;;4.10;;
22922;SDS011;11627;51.322;22.816;2024-02-04T03:34:15;7.47;;;3.33;;
22922;SDS011;11627;51.322;22.816;2024-02-04T03:36:42;9.32;;;3.65;;
22922;SDS011;11627;51.322;22.816;2024-02-04T03:39:09;13.25;;;3.45;;
22922;SDS011;11627;51.322;22.816;2024-02-04T03:41:36;4.82;;;2.92;;
22922;SDS011;11627;51.322;22.816;2024-02-04T03:44:03;8.43;;;3.92;;
22922;SDS011;11627;51.322;22.816;2024-02-04T03:46:33;8.60;;;3.97;;
22922;SDS011;11627;51.322;22.816;2024-02-04T03:48:59;8.38;;;3.15;;
22922;SDS011;11627;51.322;22.816;2024-02-04T03:51:26;6.60;;;2.97;;
22922;SDS011;11627;51.322;22.816;2024-02-04T03:53:53;7.97;;;3.45;;
22922;SDS011;11627;51.322;22.816;2024-02-04T03:56:20;9.95;;;3.08;;
22922;SDS011;11627;51.322;22.816;2024-02-04T03:58:47;5.00;;;2.63;;
22922;SDS011;11627;51.322;22.816;2024-02-04T04:01:14;3.22;;;1.48;;
22922;SDS011;11627;51.322;22.816;2024-02-04T04:03:42;5.80;;;2.15;;
22922;SDS011;11627;51.322;22.816;2024-02-04T04:06:10;4.53;;;1.90;;
22922;SDS011;11627;51.322;22.816;2024-02-04T04:08:38;5.00;;;1.77;;
22922;SDS011;11627;51.322;22.816;2024-02-04T04:11:07;6.50;;;1.95;;
22922;SDS011;11627;51.322;22.816;2024-02-04T04:13:37;4.03;;;1.50;;
22922;SDS011;11627;51.322;22.816;2024-02-04T04:16:05;11.52;;;2.58;;
22922;SDS011;11627;51.322;22.816;2024-02-04T04:18:35;6.72;;;2.22;;
22922;SDS011;11627;51.322;22.816;2024-02-04T04:21:02;6.40;;;1.73;;
22922;SDS011;11627;51.322;22.816;2024-02-04T04:23:30;7.05;;;2.58;;
22922;SDS011;11627;51.322;22.816;2024-02-04T04:25:57;5.90;;;1.80;;
22922;SDS011;11627;51.322;22.816;2024-02-04T04:28:23;11.00;;;2.80;;
22922;SDS011;11627;51.322;22.816;2024-02-04T04:30:50;6.10;;;2.25;;
22922;SDS011;11627;51.322;22.816;2024-02-04T04:33:18;3.67;;;1.63;;
22922;SDS011;11627;51.322;22.816;2024-02-04T04:35:46;7.20;;;3.10;;
22922;SDS011;11627;51.322;22.816;2024-02-04T04:38:13;5.82;;;1.95;;
22922;SDS011;11627;51.322;22.816;2024-02-04T04:40:44;7.78;;;2.78;;
22922;SDS011;11627;51.322;22.816;2024-02-04T04:43:09;7.90;;;2.83;;
22922;SDS011;11627;51.322;22.816;2024-02-04T04:45:36;3.97;;;2.58;;
22922;SDS011;11627;51.322;22.816;2024-02-04T04:48:04;3.90;;;1.63;;
22922;SDS011;11627;51.322;22.816;2024-02-04T04:50:33;10.32;;;2.90;;
22922;SDS011;11627;51.322;22.816;2024-02-04T04:53:00;6.47;;;2.10;;
22922;SDS011;11627;51.322;22.816;2024-02-04T04:55:28;4.40;;;1.88;;
22922;SDS011;11627;51.322;22.816;2024-02-04T04:57:55;8.05;;;2.72;;
22922;SDS011;11627;51.322;22.816;2024-02-04T05:00:21;4.60;;;1.83;;
22922;SDS011;11627;51.322;22.816;2024-02-04T05:02:48;4.22;;;1.85;;
22922;SDS011;11627;51.322;22.816;2024-02-04T05:05:14;6.32;;;2.08;;
22922;SDS011;11627;51.322;22.816;2024-02-04T05:07:41;8.48;;;2.78;;
22922;SDS011;11627;51.322;22.816;2024-02-04T05:10:08;6.68;;;2.72;;
22922;SDS011;11627;51.322;22.816;2024-02-04T05:12:36;10.30;;;3.22;;
22922;SDS011;11627;51.322;22.816;2024-02-04T05:15:02;9.50;;;3.17;;
22922;SDS011;11627;51.322;22.816;2024-02-04T05:17:29;8.43;;;2.67;;
22922;SDS011;11627;51.322;22.816;2024-02-04T05:19:54;6.63;;;1.45;;
22922;SDS011;11627;51.322;22.816;2024-02-04T05:22:20;7.90;;;2.88;;
22922;SDS011;11627;51.322;22.816;2024-02-04T05:24:46;5.13;;;2.05;;
22922;SDS011;11627;51.322;22.816;2024-02-04T05:27:12;6.50;;;1.80;;
22922;SDS011;11627;51.322;22.816;2024-02-04T05:29:39;3.25;;;1.27;;
22922;SDS011;11627;51.322;22.816;2024-02-04T05:32:07;5.03;;;2.60;;
22922;SDS011;11627;51.322;22.816;2024-02-04T05:34:34;3.72;;;1.20;;
22922;SDS011;11627;51.322;22.816;2024-02-04T05:37:01;5.70;;;1.77;;
22922;SDS011;11627;51.322;22.816;2024-02-04T05:39:30;6.07;;;1.77;;
22922;SDS011;11627;51.322;22.816;2024-02-04T05:41:55;8.75;;;2.90;;
22922;SDS011;11627;51.322;22.816;2024-02-04T05:44:21;7.85;;;2.85;;
22922;SDS011;11627;51.322;22.816;2024-02-04T05:46:48;4.43;;;1.92;;
22922;SDS011;11627;51.322;22.816;2024-02-04T05:49:14;4.15;;;1.75;;
22922;SDS011;11627;51.322;22.816;2024-02-04T05:51:41;7.47;;;2.13;;
22922;SDS011;11627;51.322;22.816;2024-02-04T05:54:10;8.63;;;2.08;;
22922;SDS011;11627;51.322;22.816;2024-02-04T05:56:35;3.42;;;1.45;;
22922;SDS011;11627;51.322;22.816;2024-02-04T05:59:01;6.75;;;1.70;;
22922;SDS011;11627;51.322;22.816;2024-02-04T06:01:27;7.97;;;2.00;;
22922;SDS011;11627;51.322;22.816;2024-02-04T06:03:54;3.58;;;1.73;;
22922;SDS011;11627;51.322;22.816;2024-02-04T06:06:20;5.97;;;1.95;;
22922;SDS011;11627;51.322;22.816;2024-02-04T06:08:48;1.13;;;0.57;;
22922;SDS011;11627;51.322;22.816;2024-02-04T06:11:15;4.90;;;1.15;;
22922;SDS011;11627;51.322;22.816;2024-02-04T06:13:43;7.38;;;2.15;;
22922;SDS011;11627;51.322;22.816;2024-02-04T06:16:11;4.25;;;1.02;;
22922;SDS011;11627;51.322;22.816;2024-02-04T06:18:37;2.75;;;1.02;;
22922;SDS011;11627;51.322;22.816;2024-02-04T06:21:05;5.30;;;1.05;;
22922;SDS011;11627;51.322;22.816;2024-02-04T06:23:33;5.05;;;1.35;;
22922;SDS011;11627;51.322;22.816;2024-02-04T06:26:00;5.97;;;0.93;;
22922;SDS011;11627;51.322;22.816;2024-02-04T06:28:26;2.63;;;0.95;;
22922;SDS011;11627;51.322;22.816;2024-02-04T06:30:52;5.72;;;1.20;;
22922;SDS011;11627;51.322;22.816;2024-02-04T06:33:20;11.82;;;2.30;;
22922;SDS011;11627;51.322;22.816;2024-02-04T06:35:48;4.22;;;1.50;;
22922;SDS011;11627;51.322;22.816;2024-02-04T06:38:15;4.93;;;0.93;;
22922;SDS011;11627;51.322;22.816;2024-02-04T06:40:42;7.53;;;1.80;;
22922;SDS011;11627;51.322;22.816;2024-02-04T06:43:10;6.22;;;1.30;;
22922;SDS011;11627;51.322;22.816;2024-02-04T06:45:36;3.72;;;1.13;;
22922;SDS011;11627;51.322;22.816;2024-02-04T06:48:01;3.53;;;0.73;;
22922;SDS011;11627;51.322;22.816;2024-02-04T06:50:29;7.00;;;1.95;;
22922;SDS011;11627;51.322;22.816;2024-02-04T06:52:56;5.85;;;2.05;;
22922;SDS011;11627;51.322;22.816;2024-02-04T06:55:23;8.63;;;1.70;;
22922;SDS011;11627;51.322;22.816;2024-02-04T06:58:04;4.00;;;1.23;;
22922;SDS011;11627;51.322;22.816;2024-02-04T07:00:30;4.25;;;0.85;;
22922;SDS011;11627;51.322;22.816;2024-02-04T07:02:56;2.25;;;0.90;;
22922;SDS011;11627;51.322;22.816;2024-02-04T07:05:23;2.65;;;0.80;;
22922;SDS011;11627;51.322;22.816;2024-02-04T07:07:50;2.72;;;0.80;;
22922;SDS011;11627;51.322;22.816;2024-02-04T07:10:16;1.30;;;0.68;;
22922;SDS011;11627;51.322;22.816;2024-02-04T07:12:42;0.82;;;0.43;;
22922;SDS011;11627;51.322;22.816;2024-02-04T07:15:10;1.25;;;0.60;;
22922;SDS011;11627;51.322;22.816;2024-02-04T07:17:36;0.60;;;0.57;;
22922;SDS011;11627;51.322;22.816;2024-02-04T07:20:02;1.80;;;0.85;;
22922;SDS011;11627;51.322;22.816;2024-02-04T07:22:28;1.95;;;0.63;;
22922;SDS011;11627;51.322;22.816;2024-02-04T07:24:55;0.80;;;0.55;;
22922;SDS011;11627;51.322;22.816;2024-02-04T07:27:21;2.47;;;0.85;;
22922;SDS011;11627;51.322;22.816;2024-02-04T07:29:48;4.00;;;1.20;;
22922;SDS011;11627;51.322;22.816;2024-02-04T07:32:15;1.83;;;0.93;;
22922;SDS011;11627;51.322;22.816;2024-02-04T07:34:43;5.45;;;1.20;;
22922;SDS011;11627;51.322;22.816;2024-02-04T07:37:10;4.20;;;1.02;;
22922;SDS011;11627;51.322;22.816;2024-02-04T07:39:37;2.80;;;1.15;;
22922;SDS011;11627;51.322;22.816;2024-02-04T07:42:03;4.60;;;1.02;;
22922;SDS011;11627;51.322;22.816;2024-02-04T07:44:31;4.05;;;1.00;;
22922;SDS011;11627;51.322;22.816;2024-02-04T07:46:58;2.60;;;0.95;;
22922;SDS011;11627;51.322;22.816;2024-02-04T07:49:24;3.20;;;1.08;;
22922;SDS011;11627;51.322;22.816;2024-02-04T07:51:49;5.95;;;1.50;;
22922;SDS011;11627;51.322;22.816;2024-02-04T07:54:16;6.00;;;1.10;;
22922;SDS011;11627;51.322;22.816;2024-02-04T07:56:43;2.58;;;0.70;;
22922;SDS011;11627;51.322;22.816;2024-02-04T07:59:10;2.55;;;1.00;;
22922;SDS011;11627;51.322;22.816;2024-02-04T08:01:36;5.50;;;0.93;;
22922;SDS011;11627;51.322;22.816;2024-02-04T08:04:04;5.38;;;1.15;;
22922;SDS011;11627;51.322;22.816;2024-02-04T08:06:31;5.90;;;1.10;;
22922;SDS011;11627;51.322;22.816;2024-02-04T08:09:00;3.45;;;1.02;;
22922;SDS011;11627;51.322;22.816;2024-02-04T08:11:26;2.47;;;0.75;;
22922;SDS011;11627;51.322;22.816;2024-02-04T08:13:52;3.15;;;1.13;;
22922;SDS011;11627;51.322;22.816;2024-02-04T08:16:19;9.13;;;2.08;;
22922;SDS011;11627;51.322;22.816;2024-02-04T08:18:46;7.10;;;1.50;;
22922;SDS011;11627;51.322;22.816;2024-02-04T08:21:13;6.75;;;2.00;;
22922;SDS011;11627;51.322;22.816;2024-02-04T08:23:40;7.20;;;2.35;;
22922;SDS011;11627;51.322;22.816;2024-02-04T08:26:06;5.15;;;1.80;;
22922;SDS011;11627;51.322;22.816;2024-02-04T08:28:33;4.70;;;2.10;;
22922;SDS011;11627;51.322;22.816;2024-02-04T08:30:59;5.47;;;1.80;;
22922;SDS011;11627;51.322;22.816;2024-02-04T08:33:25;5.03;;;1.77;;
22922;SDS011;11627;51.322;22.816;2024-02-04T08:35:51;7.00;;;1.85;;
22922;SDS011;11627;51.322;22.816;2024-02-04T08:38:18;6.65;;;1.77;;
22922;SDS011;11627;51.322;22.816;2024-02-04T08:40:45;7.68;;;1.92;;
22922;SDS011;11627;51.322;22.816;2024-02-04T08:43:12;7.10;;;2.08;;
22922;SDS011;11627;51.322;22.816;2024-02-04T08:45:39;2.22;;;1.15;;
22922;SDS011;11627;51.322;22.816;2024-02-04T08:48:05;6.45;;;1.30;;
22922;SDS011;11627;51.322;22.816;2024-02-04T08:50:33;8.90;;;1.75;;
22922;SDS011;11627;51.322;22.816;2024-02-04T08:53:00;6.10;;;1.60;;
22922;SDS011;11627;51.322;22.816;2024-02-04T08:55:29;7.50;;;1.90;;
22922;SDS011;11627;51.322;22.816;2024-02-04T08:57:56;6.60;;;1.80;;
22922;SDS011;11627;51.322;22.816;2024-02-04T09:00:22;5.10;;;2.03;;
22922;SDS011;11627;51.322;22.816;2024-02-04T09:02:49;15.23;;;1.55;;
22922;SDS011;11627;51.322;22.816;2024-02-04T09:05:15;8.05;;;1.40;;
22922;SDS011;11627;51.322;22.816;2024-02-04T09:07:44;5.60;;;1.50;;
22922;SDS011;11627;51.322;22.816;2024-02-04T09:10:11;3.60;;;1.50;;
22922;SDS011;11627;51.322;22.816;2024-02-04T09:12:38;2.55;;;1.13;;
22922;SDS011;11627;51.322;22.816;2024-02-04T09:15:07;3.55;;;1.55;;
22922;SDS011;11627;51.322;22.816;2024-02-04T09:17:33;5.28;;;1.52;;
22922;SDS011;11627;51.322;22.816;2024-02-04T09:20:00;5.18;;;1.70;;
22922;SDS011;11627;51.322;22.816;2024-02-04T09:22:28;3.47;;;1.30;;
22922;SDS011;11627;51.322;22.816;2024-02-04T09:24:55;3.35;;;1.23;;
22922;SDS011;11627;51.322;22.816;2024-02-04T09:27:22;6.18;;;1.13;;
22922;SDS011;11627;51.322;22.816;2024-02-04T09:29:48;8.60;;;2.15;;
22922;SDS011;11627;51.322;22.816;2024-02-04T09:32:16;6.72;;;1.40;;
22922;SDS011;11627;51.322;22.816;2024-02-04T09:34:44;5.20;;;1.52;;
22922;SDS011;11627;51.322;22.816;2024-02-04T09:37:11;5.28;;;1.95;;
22922;SDS011;11627;51.322;22.816;2024-02-04T09:39:37;5.97;;;1.60;;
22922;SDS011;11627;51.322;22.816;2024-02-04T09:42:02;6.60;;;1.60;;
22922;SDS011;11627;51.322;22.816;2024-02-04T09:44:29;9.88;;;1.95;;
22922;SDS011;11627;51.322;22.816;2024-02-04T09:46:59;6.05;;;1.95;;
22922;SDS011;11627;51.322;22.816;2024-02-04T09:49:27;6.70;;;1.75;;
22922;SDS011;11627;51.322;22.816;2024-02-04T09:51:56;7.80;;;1.60;;
22922;SDS011;11627;51.322;22.816;2024-02-04T09:54:24;6.07;;;1.60;;
22922;SDS011;11627;51.322;22.816;2024-02-04T09:56:54;6.72;;;1.65;;
22922;SDS011;11627;51.322;22.816;2024-02-04T09:59:22;6.47;;;1.85;;
22922;SDS011;11627;51.322;22.816;2024-02-04T10:01:49;3.00;;;1.33;;
22922;SDS011;11627;51.322;22.816;2024-02-04T10:04:19;8.85;;;2.40;;
22922;SDS011;11627;51.322;22.816;2024-02-04T10:06:46;6.13;;;2.08;;
22922;SDS011;11627;51.322;22.816;2024-02-04T10:09:13;7.45;;;1.55;;
22922;SDS011;11627;51.322;22.816;2024-02-04T10:11:40;7.03;;;1.40;;
22922;SDS011;11627;51.322;22.816;2024-02-04T10:14:07;4.47;;;1.45;;
22922;SDS011;11627;51.322;22.816;2024-02-04T10:16:35;13.60;;;5.40;;
22922;SDS011;11627;51.322;22.816;2024-02-04T10:19:02;11.00;;;2.45;;
22922;SDS011;11627;51.322;22.816;2024-02-04T10:21:29;11.57;;;2.90;;
22922;SDS011;11627;51.322;22.816;2024-02-04T10:23:58;4.43;;;1.88;;
22922;SDS011;11627;51.322;22.816;2024-02-04T10:26:33;7.50;;;1.23;;
22922;SDS011;11627;51.322;22.816;2024-02-04T10:29:02;4.43;;;0.90;;
22922;SDS011;11627;51.322;22.816;2024-02-04T10:31:29;4.30;;;1.45;;
22922;SDS011;11627;51.322;22.816;2024-02-04T10:33:55;6.25;;;1.63;;
22922;SDS011;11627;51.322;22.816;2024-02-04T10:36:21;9.25;;;1.98;;
22922;SDS011;11627;51.322;22.816;2024-02-04T10:38:47;4.95;;;1.58;;
22922;SDS011;11627;51.322;22.816;2024-02-04T10:41:16;4.22;;;1.52;;
22922;SDS011;11627;51.322;22.816;2024-02-04T10:43:43;9.63;;;2.28;;
22922;SDS011;11627;51.322;22.816;2024-02-04T10:48:43;10.05;;;1.23;;
22922;SDS011;11627;51.322;22.816;2024-02-04T10:51:17;5.93;;;1.45;;
22922;SDS011;11627;51.322;22.816;2024-02-04T10:53:46;8.85;;;1.67;;
22922;SDS011;11627;51.322;22.816;2024-02-04T10:56:58;5.47;;;1.48;;
22922;SDS011;11627;51.322;22.816;2024-02-04T10:59:08;3.53;;;1.50;;
22922;SDS011;11627;51.322;22.816;2024-02-04T11:01:38;3.85;;;1.48;;
22922;SDS011;11627;51.322;22.816;2024-02-04T11:04:04;6.53;;;1.92;;
22922;SDS011;11627;51.322;22.816;2024-02-04T11:06:32;6.00;;;1.42;;
22922;SDS011;11627;51.322;22.816;2024-02-04T11:08:59;5.63;;;1.50;;
22922;SDS011;11627;51.322;22.816;2024-02-04T11:11:26;3.05;;;1.15;;
22922;SDS011;11627;51.322;22.816;2024-02-04T11:13:54;6.53;;;1.27;;
22922;SDS011;11627;51.322;22.816;2024-02-04T11:28:11;9.93;;;1.10;;
22922;SDS011;11627;51.322;22.816;2024-02-04T11:30:37;3.33;;;1.08;;
22922;SDS011;11627;51.322;22.816;2024-02-04T11:33:04;7.93;;;2.42;;
22922;SDS011;11627;51.322;22.816;2024-02-04T11:35:32;1.65;;;0.52;;
22922;SDS011;11627;51.322;22.816;2024-02-04T11:37:59;11.18;;;1.40;;
22922;SDS011;11627;51.322;22.816;2024-02-04T11:40:30;5.03;;;1.55;;
22922;SDS011;11627;51.322;22.816;2024-02-04T11:43:13;6.05;;;1.58;;
22922;SDS011;11627;51.322;22.816;2024-02-04T11:45:40;5.60;;;1.70;;
22922;SDS011;11627;51.322;22.816;2024-02-04T11:48:08;6.53;;;1.38;;
22922;SDS011;11627;51.322;22.816;2024-02-04T11:50:37;7.75;;;2.35;;
22922;SDS011;11627;51.322;22.816;2024-02-04T11:53:10;6.47;;;1.40;;
22922;SDS011;11627;51.322;22.816;2024-02-04T11:55:41;3.85;;;1.52;;
22922;SDS011;11627;51.322;22.816;2024-02-04T11:58:08;7.40;;;1.77;;
22922;SDS011;11627;51.322;22.816;2024-02-04T12:00:37;4.68;;;1.65;;
22922;SDS011;11627;51.322;22.816;2024-02-04T12:03:06;2.65;;;1.00;;
22922;SDS011;11627;51.322;22.816;2024-02-04T12:05:34;3.83;;;1.02;;
22922;SDS011;11627;51.322;22.816;2024-02-04T12:08:02;3.85;;;1.17;;
22922;SDS011;11627;51.322;22.816;2024-02-04T12:10:30;11.30;;;1.88;;
22922;SDS011;11627;51.322;22.816;2024-02-04T12:13:01;4.85;;;1.70;;
22922;SDS011;11627;51.322;22.816;2024-02-04T12:15:29;2.38;;;0.63;;
22922;SDS011;11627;51.322;22.816;2024-02-04T12:17:55;1.55;;;0.73;;
22922;SDS011;11627;51.322;22.816;2024-02-04T12:20:31;3.70;;;1.27;;
22922;SDS011;11627;51.322;22.816;2024-02-04T12:22:57;7.35;;;1.95;;
22922;SDS011;11627;51.322;22.816;2024-02-04T12:25:23;6.18;;;1.00;;
22922;SDS011;11627;51.322;22.816;2024-02-04T12:27:51;5.75;;;1.15;;
22922;SDS011;11627;51.322;22.816;2024-02-04T12:30:17;3.70;;;1.70;;
22922;SDS011;11627;51.322;22.816;2024-02-04T12:32:43;4.65;;;1.20;;
22922;SDS011;11627;51.322;22.816;2024-02-04T12:35:15;5.03;;;1.42;;
22922;SDS011;11627;51.322;22.816;2024-02-04T12:37:54;4.90;;;1.58;;
22922;SDS011;11627;51.322;22.816;2024-02-04T12:40:24;7.78;;;1.50;;
22922;SDS011;11627;51.322;22.816;2024-02-04T12:42:55;5.28;;;1.02;;
22922;SDS011;11627;51.322;22.816;2024-02-04T12:45:24;5.00;;;1.48;;
22922;SDS011;11627;51.322;22.816;2024-02-04T12:47:52;5.13;;;1.52;;
22922;SDS011;11627;51.322;22.816;2024-02-04T12:50:19;11.80;;;2.30;;
22922;SDS011;11627;51.322;22.816;2024-02-04T12:52:46;13.05;;;3.65;;
22922;SDS011;11627;51.322;22.816;2024-02-04T12:55:24;6.70;;;1.98;;
22922;SDS011;11627;51.322;22.816;2024-02-04T12:58:09;2.83;;;1.10;;
22922;SDS011;11627;51.322;22.816;2024-02-04T13:00:38;5.38;;;1.85;;
22922;SDS011;11627;51.322;22.816;2024-02-04T13:03:04;11.52;;;3.53;;
22922;SDS011;11627;51.322;22.816;2024-02-04T13:05:33;10.50;;;2.15;;
22922;SDS011;11627;51.322;22.816;2024-02-04T13:07:59;29.10;;;5.97;;
22922;SDS011;11627;51.322;22.816;2024-02-04T13:10:34;44.08;;;7.10;;
22922;SDS011;11627;51.322;22.816;2024-02-04T13:13:02;37.40;;;7.38;;
22922;SDS011;11627;51.322;22.816;2024-02-04T13:15:34;32.28;;;6.35;;
22922;SDS011;11627;51.322;22.816;2024-02-04T13:18:05;62.85;;;14.00;;
22922;SDS011;11627;51.322;22.816;2024-02-04T13:20:31;48.65;;;11.15;;
22922;SDS011;11627;51.322;22.816;2024-02-04T13:22:57;35.20;;;6.40;;
22922;SDS011;11627;51.322;22.816;2024-02-04T13:25:25;24.20;;;6.32;;
22922;SDS011;11627;51.322;22.816;2024-02-04T13:27:51;18.90;;;6.45;;
22922;SDS011;11627;51.322;22.816;2024-02-04T13:30:18;12.77;;;4.78;;
22922;SDS011;11627;51.322;22.816;2024-02-04T13:32:44;48.30;;;14.68;;
22922;SDS011;11627;51.322;22.816;2024-02-04T13:35:11;58.65;;;20.05;;
22922;SDS011;11627;51.322;22.816;2024-02-04T13:37:40;17.73;;;7.03;;
22922;SDS011;11627;51.322;22.816;2024-02-04T13:40:12;30.30;;;10.75;;
22922;SDS011;11627;51.322;22.816;2024-02-04T13:42:39;50.20;;;19.23;;
22922;SDS011;11627;51.322;22.816;2024-02-04T13:45:06;31.65;;;7.90;;
22922;SDS011;11627;51.322;22.816;2024-02-04T13:47:32;9.27;;;2.40;;
22922;SDS011;11627;51.322;22.816;2024-02-04T13:49:58;10.65;;;2.05;;
22922;SDS011;11627;51.322;22.816;2024-02-04T13:52:24;19.75;;;7.20;;
22922;SDS011;11627;51.322;22.816;2024-02-04T13:54:50;12.75;;;2.65;;
22922;SDS011;11627;51.322;22.816;2024-02-04T13:57:16;25.85;;;7.45;;
22922;SDS011;11627;51.322;22.816;2024-02-04T13:59:42;11.13;;;3.90;;
22922;SDS011;11627;51.322;22.816;2024-02-04T14:02:08;13.32;;;4.18;;
22922;SDS011;11627;51.322;22.816;2024-02-04T14:04:34;5.65;;;2.10;;
22922;SDS011;11627;51.322;22.816;2024-02-04T14:07:00;6.95;;;1.65;;
22922;SDS011;11627;51.322;22.816;2024-02-04T14:09:30;6.20;;;1.80;;
22922;SDS011;11627;51.322;22.816;2024-02-04T14:11:56;8.32;;;3.00;;
22922;SDS011;11627;51.322;22.816;2024-02-04T14:14:22;2.15;;;1.40;;
22922;SDS011;11627;51.322;22.816;2024-02-04T14:16:49;4.60;;;1.92;;
22922;SDS011;11627;51.322;22.816;2024-02-04T14:19:15;10.63;;;2.95;;
22922;SDS011;11627;51.322;22.816;2024-02-04T14:21:42;7.90;;;2.00;;
22922;SDS011;11627;51.322;22.816;2024-02-04T14:24:09;6.30;;;1.75;;
22922;SDS011;11627;51.322;22.816;2024-02-04T14:26:35;7.30;;;2.53;;
22922;SDS011;11627;51.322;22.816;2024-02-04T14:29:01;5.00;;;2.10;;
22922;SDS011;11627;51.322;22.816;2024-02-04T14:31:27;5.82;;;1.90;;
22922;SDS011;11627;51.322;22.816;2024-02-04T14:33:53;7.47;;;2.28;;
22922;SDS011;11627;51.322;22.816;2024-02-04T14:36:18;7.10;;;2.78;;
22922;SDS011;11627;51.322;22.816;2024-02-04T14:38:44;6.72;;;2.65;;
22922;SDS011;11627;51.322;22.816;2024-02-04T14:41:10;10.75;;;1.95;;
22922;SDS011;11627;51.322;22.816;2024-02-04T14:43:37;8.32;;;1.08;;
22922;SDS011;11627;51.322;22.816;2024-02-04T14:46:04;4.05;;;1.23;;
22922;SDS011;11627;51.322;22.816;2024-02-04T14:48:30;4.70;;;1.73;;
22922;SDS011;11627;51.322;22.816;2024-02-04T14:50:56;8.85;;;2.78;;
22922;SDS011;11627;51.322;22.816;2024-02-04T14:53:25;6.25;;;2.05;;
22922;SDS011;11627;51.322;22.816;2024-02-04T14:55:51;11.32;;;2.92;;